Time;durP1;ratioP1;P1;durP2;ratioP2;P2;SDS_P1;SDS_P2;PMS_P1;PMS_P2;Temp;Humidity;BMP_temperature;BMP_pressure;BME280_temperature;BME280_humidity;BME280_pressure;Samples;Min_cycle;Max_cycle;Signal;HPM_P1;HPM_P2
2021/05/07 00:00:52;;;;;;;9.77;6.32;;;8.20;83.00;;;8.00;70.02;99675.31;5070409;28;20044;-77
2021/05/07 00:03:28;;;;;;;11.48;6.50;;;8.20;83.10;;;7.97;70.26;99680.28;5068674;28;20055;-77
2021/05/07 00:06:07;;;;;;;11.43;7.40;;;8.20;83.10;;;7.94;70.50;99677.94;5070249;28;20052;-77
2021/05/07 00:08:44;;;;;;;14.63;8.43;;;8.10;83.10;;;7.99;70.52;99683.63;5070413;28;20047;-77
2021/05/07 00:11:28;;;;;;;13.48;8.38;;;8.10;83.10;;;7.92;70.29;99674.56;5070026;28;20056;-77
2021/05/07 00:14:07;;;;;;;13.50;8.95;;;8.00;83.40;;;7.85;69.83;99684.50;5070004;28;20040;-77
2021/05/07 00:16:45;;;;;;;12.90;8.63;;;8.00;82.90;;;7.79;70.32;99681.50;5068880;28;20044;-77
2021/05/07 00:19:20;;;;;;;14.85;9.95;;;8.00;82.90;;;7.73;70.28;99692.22;5070364;28;20101;-77
2021/05/07 00:21:59;;;;;;;18.33;9.98;;;7.90;82.80;;;7.69;69.39;99691.78;5069667;28;20036;-77
2021/05/07 00:24:36;;;;;;;14.77;9.23;;;7.90;82.60;;;7.63;70.29;99698.78;5070194;28;20078;-78
2021/05/07 00:27:16;;;;;;;15.00;10.60;;;7.90;82.80;;;7.64;70.37;99699.63;5070042;28;20055;-77
2021/05/07 00:29:54;;;;;;;16.17;10.32;;;7.80;82.80;;;7.63;70.85;99700.63;5070081;28;20115;-77
2021/05/07 00:32:32;;;;;;;16.92;10.88;;;7.80;83.20;;;7.68;70.79;99700.94;5069359;28;20040;-77
2021/05/07 00:35:07;;;;;;;16.20;10.65;;;7.80;83.60;;;7.64;70.42;99699.63;5069783;28;20527;-77
2021/05/07 00:37:42;;;;;;;14.90;10.75;;;7.80;83.80;;;7.57;71.56;99704.09;5069556;28;20056;-77
2021/05/07 00:40:16;;;;;;;15.18;10.90;;;7.80;84.10;;;7.57;71.67;99696.78;5068331;28;20083;-77
2021/05/07 00:42:50;;;;;;;19.33;11.23;;;7.80;84.30;;;7.61;71.52;99702.69;5067515;28;20113;-77
2021/05/07 00:45:32;;;;;;;17.55;10.55;;;7.80;84.60;;;7.61;71.66;99699.97;5069560;28;20050;-77
2021/05/07 00:48:12;;;;;;;18.45;10.80;;;7.80;84.90;;;7.64;72.21;99705.03;5068001;28;20097;-77
2021/05/07 00:50:50;;;;;;;17.25;10.75;;;7.90;85.50;;;7.66;72.38;99702.97;5069494;28;20082;-77
2021/05/07 00:53:28;;;;;;;15.80;10.52;;;7.90;85.40;;;7.69;73.00;99701.75;5067838;28;20044;-77
2021/05/07 00:56:04;;;;;;;17.70;10.63;;;7.90;85.50;;;7.73;72.96;99706.63;5069615;28;20060;-77
2021/05/07 00:58:44;;;;;;;19.65;11.38;;;7.90;85.60;;;7.75;73.16;99710.00;5068179;28;20068;-77
2021/05/07 01:01:20;;;;;;;16.40;11.40;;;8.00;85.90;;;7.76;72.81;99713.53;5067174;28;20513;-77
2021/05/07 01:04:01;;;;;;;20.40;13.35;;;8.00;85.90;;;7.79;73.36;99718.59;5067609;28;20466;-77
2021/05/07 01:06:33;;;;;;;18.15;12.32;;;8.00;86.10;;;7.82;72.79;99713.66;5069331;28;20075;-77
2021/05/07 01:09:10;;;;;;;18.02;12.00;;;8.00;86.00;;;7.82;73.00;99713.66;5067779;28;20098;-78
2021/05/07 01:11:43;;;;;;;18.83;12.88;;;8.10;86.30;;;7.84;72.81;99713.44;5067471;28;20044;-78
2021/05/07 01:14:19;;;;;;;18.80;12.95;;;8.10;86.20;;;7.80;73.25;99710.25;5067338;28;20508;-77
2021/05/07 01:16:58;;;;;;;18.08;12.68;;;8.10;86.30;;;7.78;73.95;99720.44;5068097;28;20040;-77
2021/05/07 01:19:35;;;;;;;18.85;12.05;;;8.10;86.30;;;7.78;73.85;99717.72;5069073;28;20048;-78
2021/05/07 01:22:19;;;;;;;21.00;13.60;;;8.10;86.20;;;7.76;73.28;99719.78;5067238;28;20144;-78
2021/05/07 01:24:58;;;;;;;17.63;12.32;;;8.10;86.00;;;7.76;73.18;99725.19;5067494;28;20044;-77
2021/05/07 01:27:38;;;;;;;18.52;13.65;;;8.10;85.80;;;7.72;73.54;99721.19;5067836;28;20057;-77
2021/05/07 01:30:24;;;;;;;17.85;12.75;;;8.10;85.60;;;7.71;72.89;99721.38;5067713;28;20056;-78
2021/05/07 01:33:00;;;;;;;19.60;12.98;;;8.10;85.60;;;7.75;73.43;99728.94;5051946;28;20052;-77
2021/05/07 01:35:37;;;;;;;21.85;13.57;;;8.10;85.60;;;7.71;72.75;99738.47;5068947;28;20519;-78
2021/05/07 01:38:15;;;;;;;20.73;14.07;;;8.10;85.60;;;7.66;72.94;99730.06;5069031;28;20032;-77
2021/05/07 01:40:48;;;;;;;20.40;13.75;;;8.10;85.60;;;7.72;72.88;99733.91;5067445;28;20048;-77
2021/05/07 01:43:26;;;;;;;19.60;14.18;;;8.10;85.60;;;7.70;72.89;99735.94;5068465;28;20052;-77
2021/05/07 01:46:07;;;;;;;21.67;14.55;;;8.10;85.50;;;7.70;73.33;99739.50;5068826;28;20056;-78
2021/05/07 01:48:44;;;;;;;18.92;13.77;;;8.10;85.60;;;7.70;73.52;99746.78;5067338;28;20044;-78
2021/05/07 01:51:20;;;;;;;21.40;13.90;;;8.10;85.60;;;7.71;73.51;99743.91;5067188;28;20072;-78
2021/05/07 01:53:53;;;;;;;23.95;14.93;;;8.10;85.90;;;7.69;73.55;99745.94;5067057;28;20639;-77
2021/05/07 01:56:29;;;;;;;21.73;14.30;;;8.10;85.90;;;7.70;73.62;99746.78;5068551;28;20045;-78
2021/05/07 01:59:04;;;;;;;19.88;13.30;;;8.10;86.00;;;7.65;73.00;99744.63;5067302;28;20060;-78
2021/05/07 02:01:41;;;;;;;22.77;15.05;;;8.10;85.80;;;7.63;72.90;99741.25;5067051;28;20485;-78
2021/05/07 02:04:20;;;;;;;20.27;14.48;;;8.30;85.80;;;7.62;72.77;99750.41;5067267;28;20103;-77
2021/05/07 02:06:59;;;;;;;22.73;14.63;;;8.10;85.50;;;7.61;73.02;99748.72;5067415;28;20051;-78
2021/05/07 02:09:39;;;;;;;21.13;13.88;;;8.00;85.50;;;7.62;72.51;99753.13;5067342;28;20055;-77
2021/05/07 02:12:15;;;;;;;20.75;13.90;;;8.00;85.20;;;7.59;73.11;99756.19;5070616;28;20055;-77
2021/05/07 02:14:53;;;;;;;20.80;14.00;;;8.00;85.10;;;7.55;72.59;99758.41;5071155;28;20390;-78
2021/05/07 02:17:31;;;;;;;20.95;14.70;;;8.00;84.80;;;7.58;72.58;99765.34;5070920;28;20040;-77
2021/05/07 02:20:13;;;;;;;21.80;14.52;;;7.90;84.80;;;7.55;72.08;99763.00;5062836;28;20040;-77
2021/05/07 02:22:51;;;;;;;21.90;13.50;;;7.90;85.00;;;7.51;72.46;99764.41;5064252;28;20075;-78
2021/05/07 02:25:26;;;;;;;20.13;13.50;;;7.90;84.90;;;7.43;71.90;99768.84;5072373;28;20131;-78
2021/05/07 02:28:03;;;;;;;24.85;14.85;;;7.80;84.60;;;7.41;72.39;99773.63;5070674;28;20051;-77
2021/05/07 02:30:44;;;;;;;21.05;14.10;;;7.80;85.10;;;7.41;72.60;99776.31;5072283;28;20588;-78
2021/05/07 02:33:20;;;;;;;20.33;14.60;;;7.80;84.90;;;7.40;72.28;99769.22;5070329;28;20052;-78
2021/05/07 02:35:53;;;;;;;20.30;13.70;;;7.80;85.00;;;7.39;71.98;99774.84;5070728;28;20040;-78
2021/05/07 02:38:30;;;;;;;21.73;14.50;;;7.70;84.90;;;7.34;72.09;99783.47;5072167;28;20090;-78
2021/05/07 02:41:09;;;;;;;21.05;14.52;;;7.70;84.90;;;7.33;71.99;99784.53;5072079;28;20043;-77
2021/05/07 02:43:46;;;;;;;21.37;14.17;;;7.60;85.10;;;7.31;71.87;99783.00;5062840;22;20510;-77
2021/05/07 02:46:29;;;;;;;19.75;13.88;;;7.60;85.20;;;7.28;72.10;99792.34;5030609;28;20357;-77
2021/05/07 02:49:07;;;;;;;24.60;13.95;;;7.60;85.20;;;7.26;72.19;99790.84;5030602;28;20057;-77
2021/05/07 02:51:44;;;;;;;23.58;14.43;;;7.60;85.20;;;7.24;72.37;99782.91;5030367;28;20053;-77
2021/05/07 02:54:20;;;;;;;22.63;14.65;;;7.60;85.30;;;7.26;72.36;99782.72;5030402;28;20054;-77
2021/05/07 02:56:57;;;;;;;22.20;14.30;;;7.60;85.40;;;7.27;72.70;99790.63;5030145;28;20050;-77
2021/05/07 02:59:35;;;;;;;22.40;13.90;;;7.50;85.50;;;7.27;71.83;99787.09;5031712;28;20080;-77
2021/05/07 03:02:10;;;;;;;23.10;14.75;;;7.50;85.30;;;7.20;72.63;99792.41;5031157;28;20057;-77
2021/05/07 03:04:48;;;;;;;24.10;14.88;;;7.50;85.30;;;7.15;72.44;99803.75;5031673;28;20062;-77
2021/05/07 03:07:26;;;;;;;22.00;14.13;;;7.50;85.30;;;7.11;72.45;99801.59;5029959;28;20052;-77
2021/05/07 03:10:04;;;;;;;22.50;14.75;;;7.50;85.30;;;7.11;71.87;99801.59;5031550;28;20148;-77
2021/05/07 03:12:43;;;;;;;22.45;13.77;;;7.50;85.20;;;7.09;72.41;99807.19;5031044;28;20052;-77
2021/05/07 03:15:17;;;;;;;22.88;15.32;;;7.40;85.10;;;7.04;72.86;99813.16;5031503;28;20418;-77
2021/05/07 03:17:55;;;;;;;23.90;14.52;;;7.40;85.30;;;7.06;72.88;99810.22;5030021;28;20056;-77
2021/05/07 03:20:33;;;;;;;22.77;14.20;;;7.40;85.50;;;7.12;73.05;99808.69;5031582;28;20513;-77
2021/05/07 03:23:06;;;;;;;21.65;15.15;;;7.40;85.80;;;7.12;73.36;99814.09;5026794;28;20096;-77
2021/05/07 03:25:41;;;;;;;23.42;14.43;;;7.40;86.10;;;7.13;73.68;99815.78;5031373;28;20052;-77
2021/05/07 03:28:22;;;;;;;23.73;15.48;;;7.40;86.20;;;7.11;73.70;99817.84;5031071;28;20037;-77
2021/05/07 03:31:00;;;;;;;23.40;15.63;;;7.50;86.50;;;7.13;73.62;99827.44;5031168;28;20111;-77
2021/05/07 03:33:36;;;;;;;22.45;14.52;;;7.40;86.40;;;7.15;73.58;99819.16;5029103;28;20099;-77
2021/05/07 03:36:14;;;;;;;29.45;16.38;;;7.50;86.70;;;7.21;73.64;99823.84;5031005;28;20049;-77
2021/05/07 03:38:50;;;;;;;25.13;15.60;;;7.50;86.80;;;7.23;73.65;99822.66;5030821;28;20048;-77
2021/05/07 03:41:25;;;;;;;26.63;16.58;;;7.50;86.80;;;7.18;72.96;99830.47;5030955;28;20127;-77
2021/05/07 03:43:59;;;;;;;29.42;17.85;;;7.50;86.70;;;7.12;73.41;99830.31;5030503;28;20096;-77
2021/05/07 03:46:37;;;;;;;34.22;18.17;;;7.50;86.50;;;7.13;73.31;99830.16;5030804;28;20053;-77
2021/05/07 03:49:07;;;;;;;32.55;18.58;;;7.50;86.40;;;7.17;73.12;99831.47;5030729;28;20056;-77
2021/05/07 03:51:45;;;;;;;29.42;18.30;;;7.50;86.30;;;7.17;73.02;99836.88;5030683;28;20041;-77
2021/05/07 03:54:21;;;;;;;29.85;18.00;;;7.40;86.20;;;7.13;72.85;99840.13;5030665;28;20076;-77
2021/05/07 03:56:58;;;;;;;28.38;18.00;;;7.40;86.00;;;7.05;72.42;99836.47;5030683;28;20073;-77
2021/05/07 03:59:35;;;;;;;31.30;18.60;;;7.30;86.00;;;7.01;72.79;99839.72;5030467;28;20103;-77
2021/05/07 04:02:04;;;;;;;32.17;19.45;;;7.30;85.80;;;6.98;72.38;99840.06;5030148;28;20046;-77
2021/05/07 04:04:42;;;;;;;31.45;18.77;;;7.40;85.50;;;6.97;72.90;99850.03;5030436;28;20053;-77
2021/05/07 04:07:17;;;;;;;33.42;22.08;;;7.30;85.50;;;6.93;72.37;99861.38;5030284;28;20030;-77
2021/05/07 04:09:59;;;;;;;34.63;20.58;;;7.30;85.50;;;6.94;72.19;99855.78;5030346;28;20053;-77
2021/05/07 04:15:27;;;;;;;32.58;19.27;;;7.30;85.60;;;6.93;72.90;99859.53;5028599;28;20053;-77
2021/05/07 04:18:05;;;;;;;27.75;18.13;;;7.20;85.50;;;6.97;72.57;99860.88;5030005;28;20478;-77
2021/05/07 04:20:43;;;;;;;26.02;17.05;;;7.20;85.90;;;6.96;72.53;99859.16;5030150;28;20046;-77
2021/05/07 04:23:18;;;;;;;25.23;15.77;;;7.20;85.90;;;6.93;72.36;99864.06;5028203;28;20049;-77
2021/05/07 04:25:50;;;;;;;24.95;15.23;;;7.20;85.80;;;6.94;72.73;99871.19;5030033;28;20041;-77
2021/05/07 04:28:26;;;;;;;24.02;15.35;;;7.20;85.90;;;6.93;72.36;99883.00;5030025;28;20072;-78
2021/05/07 04:30:59;;;;;;;25.55;15.90;;;7.30;85.90;;;6.87;72.71;99873.75;5030041;28;20103;-78
2021/05/07 04:33:31;;;;;;;27.02;15.40;;;7.10;85.90;;;6.91;73.03;99876.94;5029400;28;20115;-80
2021/05/07 04:36:03;;;;;;;26.92;15.30;;;7.20;85.90;;;6.98;73.26;99878.75;5028474;28;20426;-82
2021/05/07 04:38:42;;;;;;;23.38;15.40;;;7.20;86.30;;;7.02;72.45;99882.78;5029808;28;20387;-81
2021/05/07 04:41:17;;;;;;;23.27;15.25;;;7.10;86.30;;;6.95;72.76;99884.53;5029813;28;20041;-79
2021/05/07 04:43:54;;;;;;;27.98;16.02;;;7.10;86.30;;;6.93;72.40;99886.59;5029256;28;20045;-81
2021/05/07 04:46:28;;;;;;;24.80;15.98;;;7.10;86.40;;;6.97;73.43;99887.91;5029570;28;20045;-81
2021/05/07 04:49:08;;;;;;;27.50;16.42;;;7.20;86.70;;;6.98;73.45;99894.16;5029536;28;20041;-81
2021/05/07 04:51:46;;;;;;;27.13;16.60;;;7.20;86.90;;;7.03;73.91;99898.03;5029267;28;20085;-80
2021/05/07 04:54:22;;;;;;;26.20;15.80;;;7.30;87.10;;;7.05;73.90;99893.28;5029384;28;20049;-81
2021/05/07 04:56:57;;;;;;;27.38;16.55;;;7.30;87.20;;;7.14;74.11;99906.75;5029339;28;20045;-79
2021/05/07 04:59:29;;;;;;;27.83;16.77;;;7.40;87.50;;;7.18;74.79;99902.69;5029430;28;20111;-81
2021/05/07 05:02:12;;;;;;;26.55;16.17;;;7.40;87.60;;;7.20;74.53;99900.66;5029095;28;20513;-80
2021/05/07 05:04:50;;;;;;;24.60;16.23;;;7.40;87.70;;;7.23;73.98;99900.28;5029267;28;20045;-81
2021/05/07 05:07:22;;;;;;;23.48;15.38;;;7.50;87.90;;;7.27;74.92;99904.31;5029367;28;20046;-80
2021/05/07 05:10:00;;;;;;;27.17;15.77;;;7.50;87.80;;;7.26;74.73;99918.88;5029271;28;20037;-80
2021/05/07 05:12:36;;;;;;;25.83;16.17;;;7.50;88.00;;;7.25;74.78;99919.88;5028908;28;20460;-81
2021/05/07 05:15:12;;;;;;;28.45;17.33;;;7.60;88.10;;;7.29;74.59;99934.78;5025972;28;20046;-81
2021/05/07 05:17:46;;;;;;;25.95;16.95;;;7.60;88.20;;;7.29;75.12;99934.78;5008743;28;20046;-81
2021/05/07 05:20:21;;;;;;;25.30;16.83;;;7.60;88.30;;;7.31;74.73;99942.69;5008615;28;20050;-78
2021/05/07 05:22:59;;;;;;;30.80;18.35;;;7.70;88.40;;;7.31;75.00;99938.16;5008450;28;20052;-78
2021/05/07 05:25:39;;;;;;;28.58;18.60;;;7.70;88.50;;;7.33;75.19;99946.94;5009173;28;20046;-78
2021/05/07 05:28:17;;;;;;;30.75;18.35;;;7.70;88.60;;;7.33;75.58;99955.03;5009156;28;20490;-79
2021/05/07 05:30:56;;;;;;;29.85;17.73;;;7.70;88.70;;;7.38;75.56;99960.75;5009200;28;20505;-79
2021/05/07 05:33:33;;;;;;;32.13;19.55;;;7.70;88.70;;;7.39;75.25;99956.19;5007359;28;20056;-79
2021/05/07 05:36:11;;;;;;;30.45;19.88;;;7.90;89.00;;;7.42;75.49;99967.53;5009010;28;20046;-78
2021/05/07 05:38:49;;;;;;;34.60;21.33;;;7.80;89.00;;;7.46;76.08;99967.16;5008892;28;20274;-78
2021/05/07 05:41:27;;;;;;;31.63;21.63;;;7.80;89.20;;;7.49;76.11;99974.91;5009060;28;20046;-78
2021/05/07 05:44:05;;;;;;;34.38;20.55;;;7.80;89.20;;;7.51;76.37;99968.31;4997293;28;20049;-78
2021/05/07 05:46:44;;;;;;;33.45;21.23;;;7.90;89.30;;;7.55;76.65;99966.09;4993786;28;21076;-78
2021/05/07 05:49:20;;;;;;;39.22;21.23;;;7.90;89.50;;;7.56;76.78;99971.31;5004741;28;20687;-78
2021/05/07 05:51:58;;;;;;;34.70;21.08;;;7.90;89.50;;;7.57;76.96;99970.28;4992154;28;20493;-78
2021/05/07 05:54:33;;;;;;;30.70;20.10;;;8.10;89.40;;;7.59;76.76;99970.94;4993237;28;20053;-78
2021/05/07 05:57:11;;;;;;;30.45;20.20;;;8.00;89.30;;;7.61;76.09;99971.59;4990950;28;20080;-82
2021/05/07 05:59:43;;;;;;;35.95;21.75;;;8.00;89.20;;;7.61;75.50;99971.59;4990610;28;20068;-78
2021/05/07 06:02:18;;;;;;;32.47;20.95;;;8.10;88.70;;;7.63;75.64;99976.84;4996908;28;20049;-78
2021/05/07 06:04:55;;;;;;;32.97;21.33;;;8.00;88.50;;;7.64;75.63;99976.69;5020108;28;20480;-78
2021/05/07 06:07:33;;;;;;;40.22;23.30;;;8.10;88.80;;;7.71;76.08;99979.53;5008198;28;20053;-78
2021/05/07 06:10:10;;;;;;;36.88;22.15;;;8.10;89.10;;;7.71;75.67;99975.97;5015334;28;20049;-79
2021/05/07 06:12:50;;;;;;;35.97;22.40;;;8.00;89.20;;;7.70;75.46;99985.94;5021600;28;20045;-78
2021/05/07 06:15:29;;;;;;;34.88;21.42;;;8.00;89.00;;;7.68;75.72;99993.41;5016677;28;20037;-78
2021/05/07 06:18:05;;;;;;;36.17;21.88;;;8.10;89.00;;;7.61;76.77;99997.84;5028331;28;20045;-78
2021/05/07 06:20:48;;;;;;;34.05;21.73;;;8.10;89.10;;;7.57;76.57;100007.34;5014967;28;20494;-78
2021/05/07 06:23:25;;;;;;;29.45;18.20;;;8.10;89.20;;;7.65;75.52;99999.19;5008454;28;20058;-78
2021/05/07 06:26:03;;;;;;;18.23;11.50;;;8.10;88.60;;;7.62;74.47;99999.56;5008802;28;20038;-78
2021/05/07 06:28:38;;;;;;;19.58;11.32;;;8.10;87.60;;;7.58;73.88;100007.19;5017700;28;20787;-78
2021/05/07 06:31:16;;;;;;;17.92;11.18;;;8.00;87.10;;;7.55;74.00;100020.22;5008408;28;20045;-77
2021/05/07 06:33:51;;;;;;;12.32;7.55;;;8.00;86.80;;;7.49;73.96;100020.94;5009073;28;20057;-77
2021/05/07 06:36:31;;;;;;;11.48;6.68;;;8.00;86.50;;;7.43;73.26;100027.91;5016754;28;20135;-78
2021/05/07 06:39:09;;;;;;;12.48;7.32;;;7.90;86.10;;;7.34;72.46;100029.81;5015490;28;20038;-78
2021/05/07 06:41:47;;;;;;;12.15;7.38;;;7.90;85.50;;;7.33;73.08;100038.97;5027082;28;20505;-78
2021/05/07 06:44:27;;;;;;;16.70;9.48;;;7.90;85.50;;;7.39;73.33;100045.53;5028195;28;20123;-78
2021/05/07 06:47:05;;;;;;;16.40;9.88;;;7.90;85.50;;;7.32;72.25;100066.19;5027501;28;20049;-78
2021/05/07 06:49:44;;;;;;;11.82;7.13;;;7.80;85.40;;;7.31;72.54;100068.06;5007917;28;20068;-78
2021/05/07 06:52:25;;;;;;;9.80;5.18;;;7.70;84.70;;;7.24;71.52;100073.31;5008168;28;20128;-79
2021/05/07 06:55:04;;;;;;;8.07;4.07;;;7.60;84.90;;;7.14;71.93;100078.09;5007747;28;20038;-80
2021/05/07 06:57:42;;;;;;;8.75;3.80;;;7.50;84.60;;;7.04;71.79;100075.59;5013410;28;20375;-79
2021/05/07 07:00:19;;;;;;;6.53;3.65;;;7.50;84.50;;;6.99;71.42;100069.84;5011622;28;20053;-80
2021/05/07 07:02:57;;;;;;;7.15;3.78;;;7.40;83.90;;;6.98;71.33;100073.53;5014443;28;20054;-80
2021/05/07 07:05:35;;;;;;;6.72;3.65;;;7.40;84.10;;;6.95;72.13;100073.91;5029106;28;20041;-79
2021/05/07 07:08:14;;;;;;;9.95;4.00;;;7.40;84.50;;;6.96;72.40;100091.81;5011487;28;20046;-80
2021/05/07 07:10:52;;;;;;;6.68;3.88;;;7.40;85.00;;;6.93;72.76;100085.91;5011633;28;20037;-80
2021/05/07 07:13:27;;;;;;;10.00;4.38;;;7.30;85.50;;;6.95;73.26;100090.13;5011779;28;20784;-80
2021/05/07 07:16:03;;;;;;;8.43;4.22;;;7.40;85.90;;;7.00;73.31;100086.91;5011566;28;20053;-79
2021/05/07 07:18:40;;;;;;;10.75;4.13;;;7.40;86.00;;;7.02;73.53;100085.72;5015464;28;20493;-79
2021/05/07 07:21:19;;;;;;;7.60;4.57;;;7.40;85.80;;;7.08;73.50;100086.88;5028908;28;20056;-79
2021/05/07 07:23:52;;;;;;;6.57;4.22;;;7.40;86.30;;;7.03;73.39;100087.41;5011421;28;20048;-80
2021/05/07 07:26:28;;;;;;;10.23;4.88;;;7.40;86.10;;;7.05;73.09;100096.19;5011242;28;20057;-79
2021/05/07 07:29:06;;;;;;;8.70;4.80;;;7.40;85.80;;;7.09;73.92;100103.97;5011350;28;20037;-80
2021/05/07 07:31:50;;;;;;;10.98;4.80;;;7.40;86.20;;;7.16;73.20;100102.25;5012850;28;20037;-79
2021/05/07 07:34:29;;;;;;;9.25;4.90;;;7.40;86.70;;;7.17;73.45;100112.91;5031156;28;20103;-80
2021/05/07 07:37:07;;;;;;;8.90;5.15;;;7.40;86.60;;;7.13;73.10;100118.84;5030553;28;20049;-78
2021/05/07 07:39:43;;;;;;;9.00;4.82;;;7.40;86.70;;;7.12;73.94;100122.56;5030864;28;20067;-81
2021/05/07 07:42:18;;;;;;;12.18;5.70;;;7.40;87.20;;;7.13;73.93;100137.78;5030102;28;20066;-81
2021/05/07 07:44:56;;;;;;;10.57;5.55;;;7.40;87.00;;;7.13;73.49;100141.34;5030724;28;20055;-80
2021/05/07 07:47:31;;;;;;;11.95;5.80;;;7.40;87.00;;;7.12;74.28;100144.22;5029056;28;20037;-81
2021/05/07 07:50:12;;;;;;;12.50;7.38;;;7.50;87.60;;;7.14;74.87;100156.56;5025368;28;20053;-80
2021/05/07 07:52:47;;;;;;;11.57;7.72;;;7.60;87.70;;;7.18;74.18;100151.66;5020085;28;20124;-80
2021/05/07 07:55:29;;;;;;;11.82;7.45;;;7.50;87.40;;;7.14;74.12;100151.16;5016861;28;20080;-80
2021/05/07 07:58:04;;;;;;;11.73;7.80;;;7.60;87.20;;;7.17;74.56;100160.78;5014266;28;20041;-80
2021/05/07 08:00:42;;;;;;;12.57;8.30;;;7.50;87.20;;;7.17;73.93;100158.06;5029726;28;20513;-80
2021/05/07 08:03:17;;;;;;;11.98;8.15;;;7.50;86.80;;;7.15;74.23;100160.13;5013570;28;20037;-80
2021/05/07 08:05:56;;;;;;;11.30;8.90;;;7.60;87.00;;;7.24;73.87;100161.78;5010691;28;20049;-80
2021/05/07 08:08:34;;;;;;;12.60;8.38;;;7.60;87.00;;;7.33;72.89;100163.47;5028697;28;20044;-81
2021/05/07 08:11:10;;;;;;;13.20;8.85;;;7.60;86.30;;;7.34;73.55;100157.03;5030290;28;20053;-81
2021/05/07 08:13:49;;;;;;;12.02;8.07;;;7.70;86.90;;;7.44;74.33;100165.81;5014351;28;20056;-80
2021/05/07 08:16:24;;;;;;;11.65;7.68;;;7.80;87.20;;;7.38;72.76;100171.91;5010527;28;20054;-80
2021/05/07 08:19:02;;;;;;;12.70;7.80;;;7.90;86.90;;;7.39;74.66;100170.91;5009950;28;20049;-80
2021/05/07 08:21:37;;;;;;;14.60;7.88;;;7.90;86.70;;;7.51;75.35;100186.78;5010237;28;20056;-80
2021/05/07 08:24:16;;;;;;;12.55;7.40;;;8.00;87.60;;;7.63;75.50;100201.63;5016341;28;20508;-80
2021/05/07 08:26:55;;;;;;;9.35;6.20;;;8.10;88.20;;;7.68;74.96;100198.41;5013821;28;20056;-80
2021/05/07 08:29:30;;;;;;;9.93;6.30;;;8.20;87.50;;;7.78;73.69;100199.88;5029754;28;20095;-80
2021/05/07 08:32:08;;;;;;;10.60;6.35;;;8.20;85.90;;;7.79;72.62;100204.31;5029275;28;20201;-80
2021/05/07 08:34:46;;;;;;;10.52;6.68;;;8.30;85.70;;;7.82;73.08;100206.69;5029890;28;20049;-80
2021/05/07 08:37:21;;;;;;;10.40;6.72;;;8.30;85.80;;;7.91;73.84;100210.19;5029643;28;20041;-80
2021/05/07 08:39:59;;;;;;;8.93;6.93;;;8.40;86.70;;;7.95;75.76;100208.81;5010064;28;20502;-81
2021/05/07 08:42:39;;;;;;;11.27;7.63;;;8.50;87.80;;;7.99;77.10;100212.03;5033026;22;20428;-77
2021/05/07 08:45:19;;;;;;;8.82;6.35;;;8.60;88.40;;;7.97;75.76;100225.75;5047944;28;20052;-78
2021/05/07 08:47:57;;;;;;;10.00;7.07;;;8.70;86.10;;;8.09;76.99;100231.66;5047737;28;20060;-78
2021/05/07 08:50:32;;;;;;;8.55;6.47;;;8.80;88.10;;;8.16;78.24;100235.31;5047092;28;20053;-77
2021/05/07 08:53:13;;;;;;;8.35;5.07;;;8.90;89.30;;;8.23;75.90;100233.59;5029228;28;20077;-77
2021/05/07 08:55:51;;;;;;;9.10;5.30;;;9.00;87.10;;;8.25;74.57;100246.16;5045661;28;20052;-77
2021/05/07 08:58:27;;;;;;;8.70;5.35;;;9.10;86.00;;;8.32;75.41;100245.25;5049354;28;20402;-77
2021/05/07 09:01:06;;;;;;;5.35;3.42;;;9.10;86.40;;;8.31;74.93;100251.69;5049215;28;20044;-77
2021/05/07 09:03:50;;;;;;;6.97;3.10;;;9.20;85.50;;;8.40;74.55;100257.94;5047343;28;20410;-77
2021/05/07 09:06:29;;;;;;;5.50;3.35;;;9.30;85.30;;;8.53;75.64;100258.25;5048123;28;20048;-77
2021/05/07 09:09:09;;;;;;;6.35;3.50;;;9.40;86.60;;;8.57;75.51;100267.72;5047754;28;20084;-77
2021/05/07 09:11:52;;;;;;;5.10;2.95;;;9.40;86.20;;;8.62;74.72;100283.44;5048653;28;20424;-79
2021/05/07 09:14:27;;;;;;;8.57;3.50;;;9.40;85.60;;;8.69;75.60;100287.13;5048868;28;20090;-77
2021/05/07 09:17:07;;;;;;;5.00;2.53;;;9.50;86.00;;;8.73;74.12;100290.34;5048744;28;20053;-77
2021/05/07 09:19:45;;;;;;;4.53;2.65;;;9.60;84.90;;;8.76;74.05;100290.00;5047443;28;20048;-77
2021/05/07 09:22:40;;;;;;;4.78;2.53;;;9.50;84.40;;;8.70;72.54;100301.53;5044081;28;20041;-77
2021/05/07 09:25:21;;;;;;;4.22;2.67;;;9.60;83.40;;;8.78;73.68;100301.50;5041579;28;20409;-77
2021/05/07 09:28:08;;;;;;;8.68;3.47;;;9.60;84.00;;;8.86;74.83;100300.63;5048441;28;20045;-76
2021/05/07 09:30:49;;;;;;;5.63;3.15;;;9.70;85.80;;;8.83;74.27;100320.78;5043861;28;20099;-77
2021/05/07 09:33:28;;;;;;;6.78;3.20;;;9.80;84.40;;;8.89;74.15;100327.38;5036270;28;20041;-77
2021/05/07 09:36:09;;;;;;;6.10;3.08;;;9.90;83.80;;;8.85;71.75;100321.47;5046652;28;20048;-77
2021/05/07 09:38:48;;;;;;;4.93;2.85;;;9.90;81.30;;;8.91;71.51;100326.19;5041507;28;20056;-77
2021/05/07 09:41:27;;;;;;;4.38;2.83;;;9.90;81.30;;;8.91;71.20;100328.03;5045931;28;20056;-77
2021/05/07 09:44:14;;;;;;;4.68;3.15;;;9.90;81.30;;;8.84;69.88;100341.50;5048169;28;20060;-78
2021/05/07 09:46:58;;;;;;;5.22;3.13;;;9.90;80.10;;;8.91;70.49;100342.50;5046149;28;20075;-76
2021/05/07 09:49:35;;;;;;;5.97;3.22;;;9.90;79.80;;;8.89;69.68;100355.38;5047267;28;20498;-76
2021/05/07 09:52:13;;;;;;;5.22;3.25;;;9.80;79.40;;;8.92;68.56;100349.59;5047731;28;20778;-76
2021/05/07 09:54:58;;;;;;;7.18;3.10;;;9.80;78.80;;;8.96;69.02;100361.78;5047186;28;20045;-77
2021/05/07 09:57:37;;;;;;;7.93;4.03;;;9.80;79.20;;;9.00;68.30;100373.13;5046823;28;20087;-76
2021/05/07 10:00:17;;;;;;;9.05;3.50;;;9.90;78.80;;;9.02;69.11;100375.66;5047339;28;20041;-77
2021/05/07 10:02:55;;;;;;;5.00;3.17;;;9.90;79.40;;;9.07;67.90;100381.41;5047814;28;20045;-77
2021/05/07 10:05:31;;;;;;;5.05;3.42;;;9.90;77.70;;;9.16;68.42;100383.91;5048122;28;20049;-76
2021/05/07 10:08:08;;;;;;;5.47;3.30;;;10.00;78.30;;;9.21;67.70;100386.06;5047516;28;20056;-77
2021/05/07 10:10:47;;;;;;;7.28;3.53;;;10.10;77.70;;;9.23;68.58;100386.72;5046554;28;20051;-77
2021/05/07 10:13:30;;;;;;;6.10;3.53;;;10.10;78.40;;;9.27;68.28;100393.53;5028106;28;20133;-77
2021/05/07 10:16:16;;;;;;;6.38;3.53;;;10.10;78.20;;;9.27;67.24;100398.94;5012357;28;20128;-77
2021/05/07 10:19:11;;;;;;;5.22;2.53;;;10.20;77.40;;;9.29;64.74;100405.06;5007222;28;20463;-77
2021/05/07 10:21:51;;;;;;;4.00;2.30;;;10.20;73.80;;;9.35;64.53;100398.91;5018191;28;20045;-77
2021/05/07 10:24:26;;;;;;;6.00;2.35;;;10.20;72.50;;;9.32;64.16;100401.97;5006896;28;20096;-77
2021/05/07 10:27:04;;;;;;;4.32;2.60;;;10.30;74.00;;;9.38;65.17;100412.09;5010124;28;20041;-77
2021/05/07 10:29:40;;;;;;;4.72;2.40;;;10.30;75.10;;;9.41;65.26;100401.94;5009317;28;20069;-77
2021/05/07 10:32:18;;;;;;;5.32;2.60;;;10.40;74.40;;;9.40;64.88;100409.22;5006259;28;20041;-76
2021/05/07 10:34:57;;;;;;;3.90;2.50;;;10.40;75.20;;;9.45;65.58;100409.53;5011282;28;20053;-77
2021/05/07 10:37:44;;;;;;;4.75;2.47;;;10.40;75.60;;;9.51;66.21;100411.50;5026245;28;20041;-76
2021/05/07 10:40:23;;;;;;;4.53;2.70;;;10.50;75.30;;;9.57;65.83;100412.66;5021909;28;21569;-79
2021/05/07 10:43:05;;;;;;;5.32;2.67;;;10.50;75.60;;;9.57;65.15;100412.66;5021162;28;20281;-76
2021/05/07 10:45:54;;;;;;;6.13;3.25;;;10.60;75.00;;;9.55;64.81;100420.16;5013441;28;20041;-79
2021/05/07 10:48:32;;;;;;;6.25;3.60;;;10.60;73.10;;;9.58;64.99;100426.06;5014118;28;20045;-76
2021/05/07 10:51:23;;;;;;;6.28;3.38;;;10.60;73.80;;;9.55;63.93;100418.28;5010985;28;20104;-77
2021/05/07 10:54:08;;;;;;;8.00;3.58;;;10.60;73.80;;;9.60;64.95;100428.63;5042008;28;20106;-77
2021/05/07 10:56:45;;;;;;;7.38;3.53;;;10.60;74.60;;;9.59;64.82;100432.34;5048064;28;20048;-77
2021/05/07 10:59:24;;;;;;;7.93;4.05;;;10.60;74.40;;;9.59;63.99;100435.06;5039622;28;20489;-77
2021/05/07 11:02:08;;;;;;;9.50;4.40;;;10.60;74.40;;;9.62;64.67;100436.59;5046875;28;20033;-77
2021/05/07 11:04:48;;;;;;;7.25;4.10;;;10.60;74.60;;;9.63;65.86;100440.97;5050658;28;20045;-77
2021/05/07 11:07:34;;;;;;;10.20;4.32;;;10.60;75.10;;;9.65;65.08;100450.63;5050463;28;20150;-76